sensor_id;sensor_type;location;lat;lon;timestamp;temperature;humidity
13616;DHT22;6879;51.368;6.782;2023-01-01T00:03:53;17.30;81.10
13616;DHT22;6879;51.368;6.782;2023-01-01T00:12:05;17.30;81.20
13616;DHT22;6879;51.368;6.782;2023-01-01T00:16:02;17.20;81.10
13616;DHT22;6879;51.368;6.782;2023-01-01T00:24:23;17.10;81.30
13616;DHT22;6879;51.368;6.782;2023-01-01T00:31:35;17.10;81.10
13616;DHT22;6879;51.368;6.782;2023-01-01T00:36:03;17.10;80.70
13616;DHT22;6879;51.368;6.782;2023-01-01T00:52:01;17.10;80.00
13616;DHT22;6879;51.368;6.782;2023-01-01T00:55:38;17.10;80.10
13616;DHT22;6879;51.368;6.782;2023-01-01T00:59:29;17.00;81.10
13616;DHT22;6879;51.368;6.782;2023-01-01T01:02:41;16.80;82.40
13616;DHT22;6879;51.368;6.782;2023-01-01T01:10:09;16.70;81.20
13616;DHT22;6879;51.368;6.782;2023-01-01T01:12:39;16.80;79.60
13616;DHT22;6879;51.368;6.782;2023-01-01T01:15:08;16.90;79.80
13616;DHT22;6879;51.368;6.782;2023-01-01T01:17:37;16.90;79.50
13616;DHT22;6879;51.368;6.782;2023-01-01T01:20:07;16.90;79.60
13616;DHT22;6879;51.368;6.782;2023-01-01T01:22:37;16.80;79.90
13616;DHT22;6879;51.368;6.782;2023-01-01T01:25:06;16.80;79.00
13616;DHT22;6879;51.368;6.782;2023-01-01T01:27:36;16.90;79.00
13616;DHT22;6879;51.368;6.782;2023-01-01T01:30:06;16.90;79.80
13616;DHT22;6879;51.368;6.782;2023-01-01T01:32:35;16.80;80.90
13616;DHT22;6879;51.368;6.782;2023-01-01T01:35:04;16.70;81.00
13616;DHT22;6879;51.368;6.782;2023-01-01T02:01:38;16.50;78.40
13616;DHT22;6879;51.368;6.782;2023-01-01T02:04:08;16.50;78.20
13616;DHT22;6879;51.368;6.782;2023-01-01T02:06:38;16.50;78.20
13616;DHT22;6879;51.368;6.782;2023-01-01T02:09:08;16.50;78.10
13616;DHT22;6879;51.368;6.782;2023-01-01T02:11:37;16.50;78.30
13616;DHT22;6879;51.368;6.782;2023-01-01T02:14:06;16.40;78.40
13616;DHT22;6879;51.368;6.782;2023-01-01T02:16:41;16.40;78.60
13616;DHT22;6879;51.368;6.782;2023-01-01T02:19:17;16.30;79.00
13616;DHT22;6879;51.368;6.782;2023-01-01T02:22:01;16.20;79.50
13616;DHT22;6879;51.368;6.782;2023-01-01T02:24:48;16.20;79.40
13616;DHT22;6879;51.368;6.782;2023-01-01T02:27:30;16.20;79.50
13616;DHT22;6879;51.368;6.782;2023-01-01T02:30:06;16.10;79.60
13616;DHT22;6879;51.368;6.782;2023-01-01T02:32:39;16.10;79.30
13616;DHT22;6879;51.368;6.782;2023-01-01T02:35:12;16.10;79.20
13616;DHT22;6879;51.368;6.782;2023-01-01T02:38:03;16.20;78.90
13616;DHT22;6879;51.368;6.782;2023-01-01T02:40:35;16.20;79.00
13616;DHT22;6879;51.368;6.782;2023-01-01T02:43:05;16.20;79.20
13616;DHT22;6879;51.368;6.782;2023-01-01T02:45:36;16.20;79.00
13616;DHT22;6879;51.368;6.782;2023-01-01T02:48:06;16.10;79.20
13616;DHT22;6879;51.368;6.782;2023-01-01T02:50:35;16.10;79.20
13616;DHT22;6879;51.368;6.782;2023-01-01T02:53:11;16.10;79.30
13616;DHT22;6879;51.368;6.782;2023-01-01T02:55:57;16.10;79.40
13616;DHT22;6879;51.368;6.782;2023-01-01T02:58:34;16.10;79.30
13616;DHT22;6879;51.368;6.782;2023-01-01T03:01:28;16.10;79.30
13616;DHT22;6879;51.368;6.782;2023-01-01T03:04:08;16.00;79.60
13616;DHT22;6879;51.368;6.782;2023-01-01T03:06:45;16.00;79.90
13616;DHT22;6879;51.368;6.782;2023-01-01T03:09:24;15.90;80.10
13616;DHT22;6879;51.368;6.782;2023-01-01T03:11:58;15.90;80.30
13616;DHT22;6879;51.368;6.782;2023-01-01T03:14:36;15.90;80.40
13616;DHT22;6879;51.368;6.782;2023-01-01T03:17:16;15.90;80.40
13616;DHT22;6879;51.368;6.782;2023-01-01T03:19:48;15.90;80.40
13616;DHT22;6879;51.368;6.782;2023-01-01T03:22:20;15.90;80.50
13616;DHT22;6879;51.368;6.782;2023-01-01T03:24:52;16.00;80.30
13616;DHT22;6879;51.368;6.782;2023-01-01T03:27:26;16.00;80.50
13616;DHT22;6879;51.368;6.782;2023-01-01T03:29:58;16.00;80.60
13616;DHT22;6879;51.368;6.782;2023-01-01T03:32:35;15.90;80.70
13616;DHT22;6879;51.368;6.782;2023-01-01T03:35:23;16.00;80.70
13616;DHT22;6879;51.368;6.782;2023-01-01T03:37:55;15.90;80.80
13616;DHT22;6879;51.368;6.782;2023-01-01T03:40:25;16.00;80.80
13616;DHT22;6879;51.368;6.782;2023-01-01T03:42:58;15.90;81.00
13616;DHT22;6879;51.368;6.782;2023-01-01T03:45:29;16.00;81.10
13616;DHT22;6879;51.368;6.782;2023-01-01T03:48:02;15.90;81.20
13616;DHT22;6879;51.368;6.782;2023-01-01T03:50:55;15.90;81.30
13616;DHT22;6879;51.368;6.782;2023-01-01T03:53:34;15.90;81.50
13616;DHT22;6879;51.368;6.782;2023-01-01T03:56:09;15.90;81.60
13616;DHT22;6879;51.368;6.782;2023-01-01T03:58:45;15.90;81.70
13616;DHT22;6879;51.368;6.782;2023-01-01T04:01:21;15.90;81.80
13616;DHT22;6879;51.368;6.782;2023-01-01T04:03:55;15.90;82.10
13616;DHT22;6879;51.368;6.782;2023-01-01T04:06:24;15.80;83.00
13616;DHT22;6879;51.368;6.782;2023-01-01T04:08:56;15.80;83.30
13616;DHT22;6879;51.368;6.782;2023-01-01T04:11:30;15.70;83.70
13616;DHT22;6879;51.368;6.782;2023-01-01T04:14:26;15.70;84.00
13616;DHT22;6879;51.368;6.782;2023-01-01T04:16:55;15.60;84.00
13616;DHT22;6879;51.368;6.782;2023-01-01T04:19:26;15.60;84.00
13616;DHT22;6879;51.368;6.782;2023-01-01T04:21:55;15.60;84.00
13616;DHT22;6879;51.368;6.782;2023-01-01T04:24:24;15.60;84.20
13616;DHT22;6879;51.368;6.782;2023-01-01T04:26:53;15.60;84.40
13616;DHT22;6879;51.368;6.782;2023-01-01T04:29:23;15.60;84.40
13616;DHT22;6879;51.368;6.782;2023-01-01T04:31:51;15.60;84.50
13616;DHT22;6879;51.368;6.782;2023-01-01T04:34:20;15.60;84.50
13616;DHT22;6879;51.368;6.782;2023-01-01T04:36:50;15.60;84.50
13616;DHT22;6879;51.368;6.782;2023-01-01T04:39:19;15.60;84.50
13616;DHT22;6879;51.368;6.782;2023-01-01T04:41:47;15.60;84.60
13616;DHT22;6879;51.368;6.782;2023-01-01T04:44:16;15.60;84.80
13616;DHT22;6879;51.368;6.782;2023-01-01T04:46:45;15.60;84.90
13616;DHT22;6879;51.368;6.782;2023-01-01T04:49:14;15.70;84.90
13616;DHT22;6879;51.368;6.782;2023-01-01T04:51:43;15.70;85.00
13616;DHT22;6879;51.368;6.782;2023-01-01T04:54:14;15.60;85.10
13616;DHT22;6879;51.368;6.782;2023-01-01T04:56:43;15.60;85.30
13616;DHT22;6879;51.368;6.782;2023-01-01T04:59:12;15.60;85.40
13616;DHT22;6879;51.368;6.782;2023-01-01T05:01:41;15.50;85.60
13616;DHT22;6879;51.368;6.782;2023-01-01T05:04:13;15.50;85.70
13616;DHT22;6879;51.368;6.782;2023-01-01T05:06:42;15.50;85.90
13616;DHT22;6879;51.368;6.782;2023-01-01T05:09:13;15.50;86.00
13616;DHT22;6879;51.368;6.782;2023-01-01T05:11:42;15.50;86.20
13616;DHT22;6879;51.368;6.782;2023-01-01T05:14:10;15.50;86.30
13616;DHT22;6879;51.368;6.782;2023-01-01T05:19:15;15.50;86.50
13616;DHT22;6879;51.368;6.782;2023-01-01T05:21:44;15.50;86.60
13616;DHT22;6879;51.368;6.782;2023-01-01T05:24:14;15.50;86.50
13616;DHT22;6879;51.368;6.782;2023-01-01T05:26:44;15.50;86.70
13616;DHT22;6879;51.368;6.782;2023-01-01T05:29:13;15.40;86.80
13616;DHT22;6879;51.368;6.782;2023-01-01T05:31:44;15.50;86.50
13616;DHT22;6879;51.368;6.782;2023-01-01T05:34:13;15.50;86.60
13616;DHT22;6879;51.368;6.782;2023-01-01T05:36:42;15.50;86.70
13616;DHT22;6879;51.368;6.782;2023-01-01T05:39:11;15.50;86.60
13616;DHT22;6879;51.368;6.782;2023-01-01T05:41:41;15.50;86.70
13616;DHT22;6879;51.368;6.782;2023-01-01T05:44:10;15.50;86.70
13616;DHT22;6879;51.368;6.782;2023-01-01T05:46:39;15.40;87.50
13616;DHT22;6879;51.368;6.782;2023-01-01T05:49:09;15.30;87.90
13616;DHT22;6879;51.368;6.782;2023-01-01T05:51:39;15.30;87.30
13616;DHT22;6879;51.368;6.782;2023-01-01T05:54:09;15.30;87.40
13616;DHT22;6879;51.368;6.782;2023-01-01T05:56:36;15.40;87.30
13616;DHT22;6879;51.368;6.782;2023-01-01T05:59:08;15.40;87.60
13616;DHT22;6879;51.368;6.782;2023-01-01T06:01:37;15.20;88.70
13616;DHT22;6879;51.368;6.782;2023-01-01T06:04:12;15.10;89.80
13616;DHT22;6879;51.368;6.782;2023-01-01T06:06:43;15.00;89.80
13616;DHT22;6879;51.368;6.782;2023-01-01T06:09:12;15.00;89.50
13616;DHT22;6879;51.368;6.782;2023-01-01T06:11:41;15.00;89.30
13616;DHT22;6879;51.368;6.782;2023-01-01T06:14:12;15.10;89.10
13616;DHT22;6879;51.368;6.782;2023-01-01T06:16:42;15.10;88.90
13616;DHT22;6879;51.368;6.782;2023-01-01T06:19:10;15.10;88.80
13616;DHT22;6879;51.368;6.782;2023-01-01T06:21:40;15.10;88.90
13616;DHT22;6879;51.368;6.782;2023-01-01T06:24:09;15.10;88.80
13616;DHT22;6879;51.368;6.782;2023-01-01T06:26:38;15.10;88.80
13616;DHT22;6879;51.368;6.782;2023-01-01T06:29:07;15.20;88.50
13616;DHT22;6879;51.368;6.782;2023-01-01T06:31:38;15.20;88.70
13616;DHT22;6879;51.368;6.782;2023-01-01T06:34:12;15.20;88.80
13616;DHT22;6879;51.368;6.782;2023-01-01T06:36:47;15.10;88.90
13616;DHT22;6879;51.368;6.782;2023-01-01T06:39:16;15.10;89.10
13616;DHT22;6879;51.368;6.782;2023-01-01T06:41:46;15.20;89.20
13616;DHT22;6879;51.368;6.782;2023-01-01T06:44:15;15.10;89.20
13616;DHT22;6879;51.368;6.782;2023-01-01T06:46:46;15.20;89.40
13616;DHT22;6879;51.368;6.782;2023-01-01T06:49:14;15.10;89.50
13616;DHT22;6879;51.368;6.782;2023-01-01T06:51:43;15.10;89.50
13616;DHT22;6879;51.368;6.782;2023-01-01T06:54:12;15.10;89.50
13616;DHT22;6879;51.368;6.782;2023-01-01T06:56:51;15.10;89.50
13616;DHT22;6879;51.368;6.782;2023-01-01T06:59:19;15.10;90.00
13616;DHT22;6879;51.368;6.782;2023-01-01T07:01:52;15.10;90.20
13616;DHT22;6879;51.368;6.782;2023-01-01T07:04:25;15.10;90.50
13616;DHT22;6879;51.368;6.782;2023-01-01T07:06:55;15.00;90.60
13616;DHT22;6879;51.368;6.782;2023-01-01T07:09:24;15.00;90.70
13616;DHT22;6879;51.368;6.782;2023-01-01T07:11:52;15.00;90.50
13616;DHT22;6879;51.368;6.782;2023-01-01T07:14:21;15.10;90.40
13616;DHT22;6879;51.368;6.782;2023-01-01T07:16:51;15.10;90.30
13616;DHT22;6879;51.368;6.782;2023-01-01T07:19:20;15.10;90.40
13616;DHT22;6879;51.368;6.782;2023-01-01T07:21:51;15.10;90.40
13616;DHT22;6879;51.368;6.782;2023-01-01T07:24:21;15.10;90.60
13616;DHT22;6879;51.368;6.782;2023-01-01T07:26:49;15.10;90.80
13616;DHT22;6879;51.368;6.782;2023-01-01T07:29:18;15.00;91.50
13616;DHT22;6879;51.368;6.782;2023-01-01T07:31:47;14.90;93.20
13616;DHT22;6879;51.368;6.782;2023-01-01T07:34:17;14.60;94.50
13616;DHT22;6879;51.368;6.782;2023-01-01T07:36:46;14.30;96.10
13616;DHT22;6879;51.368;6.782;2023-01-01T07:39:15;14.10;97.00
13616;DHT22;6879;51.368;6.782;2023-01-01T07:41:43;13.90;99.20
13616;DHT22;6879;51.368;6.782;2023-01-01T07:44:12;13.70;99.20
13616;DHT22;6879;51.368;6.782;2023-01-01T07:46:42;13.60;99.90
13616;DHT22;6879;51.368;6.782;2023-01-01T07:49:11;13.50;99.90
13616;DHT22;6879;51.368;6.782;2023-01-01T07:51:41;13.40;99.90
13616;DHT22;6879;51.368;6.782;2023-01-01T07:54:10;13.40;99.90
13616;DHT22;6879;51.368;6.782;2023-01-01T07:56:38;13.30;99.90
13616;DHT22;6879;51.368;6.782;2023-01-01T07:59:07;13.40;99.90
13616;DHT22;6879;51.368;6.782;2023-01-01T08:01:40;13.50;99.90
13616;DHT22;6879;51.368;6.782;2023-01-01T08:04:09;13.50;99.60
13616;DHT22;6879;51.368;6.782;2023-01-01T08:06:38;13.60;99.60
13616;DHT22;6879;51.368;6.782;2023-01-01T08:09:08;13.70;98.90
13616;DHT22;6879;51.368;6.782;2023-01-01T08:11:37;13.90;98.20
13616;DHT22;6879;51.368;6.782;2023-01-01T08:14:06;13.90;98.00
13616;DHT22;6879;51.368;6.782;2023-01-01T08:16:34;14.00;97.70
13616;DHT22;6879;51.368;6.782;2023-01-01T08:19:03;14.10;97.40
13616;DHT22;6879;51.368;6.782;2023-01-01T08:21:32;14.10;97.20
13616;DHT22;6879;51.368;6.782;2023-01-01T08:24:01;14.20;97.20
13616;DHT22;6879;51.368;6.782;2023-01-01T08:26:34;14.20;96.90
13616;DHT22;6879;51.368;6.782;2023-01-01T08:29:05;14.30;96.90
13616;DHT22;6879;51.368;6.782;2023-01-01T08:31:34;14.30;96.70
13616;DHT22;6879;51.368;6.782;2023-01-01T08:34:02;14.30;96.70
13616;DHT22;6879;51.368;6.782;2023-01-01T08:36:31;14.30;96.80
13616;DHT22;6879;51.368;6.782;2023-01-01T08:39:00;14.30;96.80
13616;DHT22;6879;51.368;6.782;2023-01-01T08:41:29;14.30;96.50
13616;DHT22;6879;51.368;6.782;2023-01-01T08:43:59;14.40;96.30
13616;DHT22;6879;51.368;6.782;2023-01-01T08:46:28;14.40;96.50
13616;DHT22;6879;51.368;6.782;2023-01-01T08:48:57;14.40;96.40
13616;DHT22;6879;51.368;6.782;2023-01-01T08:51:26;14.40;96.50
13616;DHT22;6879;51.368;6.782;2023-01-01T08:53:55;14.40;96.50
13616;DHT22;6879;51.368;6.782;2023-01-01T08:56:23;14.40;96.50
13616;DHT22;6879;51.368;6.782;2023-01-01T08:58:52;14.40;96.60
13616;DHT22;6879;51.368;6.782;2023-01-01T09:01:31;14.40;96.80
13616;DHT22;6879;51.368;6.782;2023-01-01T09:04:00;14.40;96.60
13616;DHT22;6879;51.368;6.782;2023-01-01T09:06:29;14.40;96.50
13616;DHT22;6879;51.368;6.782;2023-01-01T09:08:58;14.40;96.60
13616;DHT22;6879;51.368;6.782;2023-01-01T09:11:27;14.40;96.60
13616;DHT22;6879;51.368;6.782;2023-01-01T09:13:56;14.50;96.60
13616;DHT22;6879;51.368;6.782;2023-01-01T09:16:25;14.50;96.50
13616;DHT22;6879;51.368;6.782;2023-01-01T09:18:55;14.50;96.30
13616;DHT22;6879;51.368;6.782;2023-01-01T09:21:24;14.50;96.20
13616;DHT22;6879;51.368;6.782;2023-01-01T09:23:53;14.50;96.30
13616;DHT22;6879;51.368;6.782;2023-01-01T09:26:22;14.50;96.30
13616;DHT22;6879;51.368;6.782;2023-01-01T09:28:51;14.50;96.30
13616;DHT22;6879;51.368;6.782;2023-01-01T09:31:20;14.50;96.10
13616;DHT22;6879;51.368;6.782;2023-01-01T09:33:49;14.60;96.20
13616;DHT22;6879;51.368;6.782;2023-01-01T09:36:28;14.60;96.30
13616;DHT22;6879;51.368;6.782;2023-01-01T09:38:59;14.60;96.30
13616;DHT22;6879;51.368;6.782;2023-01-01T09:41:45;14.60;96.20
13616;DHT22;6879;51.368;6.782;2023-01-01T09:44:29;14.60;96.10
13616;DHT22;6879;51.368;6.782;2023-01-01T09:47:03;14.60;96.10
13616;DHT22;6879;51.368;6.782;2023-01-01T09:49:36;14.60;96.20
13616;DHT22;6879;51.368;6.782;2023-01-01T09:52:10;14.60;96.30
13616;DHT22;6879;51.368;6.782;2023-01-01T09:54:46;14.60;96.30
13616;DHT22;6879;51.368;6.782;2023-01-01T09:57:15;14.60;96.40
13616;DHT22;6879;51.368;6.782;2023-01-01T09:59:46;14.60;96.40
13616;DHT22;6879;51.368;6.782;2023-01-01T10:02:33;14.60;96.50
13616;DHT22;6879;51.368;6.782;2023-01-01T10:05:13;14.60;96.40
13616;DHT22;6879;51.368;6.782;2023-01-01T10:07:51;14.60;96.50
13616;DHT22;6879;51.368;6.782;2023-01-01T10:10:32;14.60;96.60
13616;DHT22;6879;51.368;6.782;2023-01-01T10:13:14;14.60;96.60
13616;DHT22;6879;51.368;6.782;2023-01-01T10:15:55;14.60;96.60
13616;DHT22;6879;51.368;6.782;2023-01-01T10:18:29;14.60;96.50
13616;DHT22;6879;51.368;6.782;2023-01-01T10:21:04;14.70;96.50
13616;DHT22;6879;51.368;6.782;2023-01-01T10:23:40;14.70;96.40
13616;DHT22;6879;51.368;6.782;2023-01-01T10:26:14;14.80;96.20
13616;DHT22;6879;51.368;6.782;2023-01-01T10:28:53;14.80;96.30
13616;DHT22;6879;51.368;6.782;2023-01-01T10:31:29;14.80;96.20
13616;DHT22;6879;51.368;6.782;2023-01-01T10:34:01;14.80;96.20
13616;DHT22;6879;51.368;6.782;2023-01-01T10:36:33;14.80;96.10
13616;DHT22;6879;51.368;6.782;2023-01-01T10:39:03;14.80;96.10
13616;DHT22;6879;51.368;6.782;2023-01-01T10:41:32;14.80;96.10
13616;DHT22;6879;51.368;6.782;2023-01-01T10:44:01;14.80;96.10
13616;DHT22;6879;51.368;6.782;2023-01-01T10:46:30;14.90;96.00
13616;DHT22;6879;51.368;6.782;2023-01-01T10:49:04;14.90;95.90
13616;DHT22;6879;51.368;6.782;2023-01-01T10:51:36;14.90;95.80
13616;DHT22;6879;51.368;6.782;2023-01-01T10:54:23;15.00;95.80
13616;DHT22;6879;51.368;6.782;2023-01-01T10:56:57;15.00;95.60
13616;DHT22;6879;51.368;6.782;2023-01-01T10:59:35;15.00;95.30
13616;DHT22;6879;51.368;6.782;2023-01-01T11:02:15;15.00;95.50
13616;DHT22;6879;51.368;6.782;2023-01-01T11:04:44;15.10;95.30
13616;DHT22;6879;51.368;6.782;2023-01-01T11:07:26;15.10;95.40
13616;DHT22;6879;51.368;6.782;2023-01-01T11:09:59;15.20;95.10
13616;DHT22;6879;51.368;6.782;2023-01-01T11:12:33;15.20;95.10
13616;DHT22;6879;51.368;6.782;2023-01-01T11:15:35;15.20;95.10
13616;DHT22;6879;51.368;6.782;2023-01-01T11:18:09;15.20;94.90
13616;DHT22;6879;51.368;6.782;2023-01-01T11:20:39;15.20;94.70
13616;DHT22;6879;51.368;6.782;2023-01-01T11:23:28;15.30;94.70
13616;DHT22;6879;51.368;6.782;2023-01-01T11:26:02;15.30;94.70
13616;DHT22;6879;51.368;6.782;2023-01-01T11:28:32;15.30;94.90
13616;DHT22;6879;51.368;6.782;2023-01-01T11:31:05;15.20;94.90
13616;DHT22;6879;51.368;6.782;2023-01-01T11:33:38;15.20;95.30
13616;DHT22;6879;51.368;6.782;2023-01-01T11:36:07;15.20;95.20
13616;DHT22;6879;51.368;6.782;2023-01-01T11:38:37;15.20;95.20
13616;DHT22;6879;51.368;6.782;2023-01-01T11:41:07;15.20;95.20
13616;DHT22;6879;51.368;6.782;2023-01-01T11:43:39;15.20;95.10
13616;DHT22;6879;51.368;6.782;2023-01-01T11:46:15;15.20;95.10
13616;DHT22;6879;51.368;6.782;2023-01-01T11:48:45;15.20;95.10
13616;DHT22;6879;51.368;6.782;2023-01-01T11:51:28;15.20;95.40
13616;DHT22;6879;51.368;6.782;2023-01-01T11:54:22;15.20;95.40
13616;DHT22;6879;51.368;6.782;2023-01-01T11:56:57;15.20;95.00
13616;DHT22;6879;51.368;6.782;2023-01-01T11:59:39;15.20;95.00
13616;DHT22;6879;51.368;6.782;2023-01-01T12:02:12;15.20;95.00
13616;DHT22;6879;51.368;6.782;2023-01-01T12:04:47;15.20;95.20
13616;DHT22;6879;51.368;6.782;2023-01-01T12:07:22;15.20;95.30
13616;DHT22;6879;51.368;6.782;2023-01-01T12:09:54;15.20;95.30
13616;DHT22;6879;51.368;6.782;2023-01-01T12:12:29;15.20;95.20
13616;DHT22;6879;51.368;6.782;2023-01-01T12:15:03;15.20;95.10
13616;DHT22;6879;51.368;6.782;2023-01-01T12:17:36;15.20;94.90
13616;DHT22;6879;51.368;6.782;2023-01-01T12:20:11;15.20;95.30
13616;DHT22;6879;51.368;6.782;2023-01-01T12:22:43;15.20;95.10
13616;DHT22;6879;51.368;6.782;2023-01-01T12:25:14;15.30;94.60
13616;DHT22;6879;51.368;6.782;2023-01-01T12:28:02;15.20;94.80
13616;DHT22;6879;51.368;6.782;2023-01-01T12:30:39;15.20;94.80
13616;DHT22;6879;51.368;6.782;2023-01-01T12:33:33;15.20;94.50
13616;DHT22;6879;51.368;6.782;2023-01-01T12:36:14;15.20;94.60
13616;DHT22;6879;51.368;6.782;2023-01-01T12:39:06;15.20;94.40
13616;DHT22;6879;51.368;6.782;2023-01-01T12:41:51;15.20;94.30
13616;DHT22;6879;51.368;6.782;2023-01-01T12:44:31;15.20;94.50
13616;DHT22;6879;51.368;6.782;2023-01-01T12:47:07;15.10;94.60
13616;DHT22;6879;51.368;6.782;2023-01-01T12:49:51;15.10;94.60
13616;DHT22;6879;51.368;6.782;2023-01-01T12:52:33;15.10;94.70
13616;DHT22;6879;51.368;6.782;2023-01-01T12:55:32;15.00;94.60
13616;DHT22;6879;51.368;6.782;2023-01-01T12:58:07;15.10;94.90
13616;DHT22;6879;51.368;6.782;2023-01-01T13:00:40;15.10;94.80
13616;DHT22;6879;51.368;6.782;2023-01-01T13:03:16;15.00;94.90
13616;DHT22;6879;51.368;6.782;2023-01-01T13:05:48;15.00;94.90
13616;DHT22;6879;51.368;6.782;2023-01-01T13:08:23;15.00;95.00
13616;DHT22;6879;51.368;6.782;2023-01-01T13:10:59;15.00;94.80
13616;DHT22;6879;51.368;6.782;2023-01-01T13:13:30;15.00;94.80
13616;DHT22;6879;51.368;6.782;2023-01-01T13:16:02;15.10;94.60
13616;DHT22;6879;51.368;6.782;2023-01-01T13:18:33;15.00;94.70
13616;DHT22;6879;51.368;6.782;2023-01-01T13:21:06;15.00;94.80
13616;DHT22;6879;51.368;6.782;2023-01-01T13:23:46;15.00;95.00
13616;DHT22;6879;51.368;6.782;2023-01-01T13:26:46;15.00;94.80
13616;DHT22;6879;51.368;6.782;2023-01-01T13:29:43;15.00;95.00
13616;DHT22;6879;51.368;6.782;2023-01-01T13:32:16;14.90;95.00
13616;DHT22;6879;51.368;6.782;2023-01-01T13:35:13;14.80;95.20
13616;DHT22;6879;51.368;6.782;2023-01-01T13:37:44;14.80;95.20
13616;DHT22;6879;51.368;6.782;2023-01-01T13:40:48;14.80;95.30
13616;DHT22;6879;51.368;6.782;2023-01-01T13:43:26;14.80;95.30
13616;DHT22;6879;51.368;6.782;2023-01-01T13:45:58;14.80;95.30
13616;DHT22;6879;51.368;6.782;2023-01-01T13:49:18;14.70;95.40
13616;DHT22;6879;51.368;6.782;2023-01-01T13:52:11;14.80;95.30
13616;DHT22;6879;51.368;6.782;2023-01-01T13:58:03;14.70;95.40
13616;DHT22;6879;51.368;6.782;2023-01-01T14:00:41;14.70;95.30
13616;DHT22;6879;51.368;6.782;2023-01-01T14:03:17;14.60;95.50
13616;DHT22;6879;51.368;6.782;2023-01-01T14:05:53;14.60;95.50
13616;DHT22;6879;51.368;6.782;2023-01-01T14:08:28;14.60;95.50
13616;DHT22;6879;51.368;6.782;2023-01-01T14:11:00;14.60;95.50
13616;DHT22;6879;51.368;6.782;2023-01-01T14:13:38;14.60;95.60
13616;DHT22;6879;51.368;6.782;2023-01-01T14:50:48;14.30;95.40
13616;DHT22;6879;51.368;6.782;2023-01-01T14:54:21;14.30;95.40
13616;DHT22;6879;51.368;6.782;2023-01-01T14:57:29;14.30;95.50
13616;DHT22;6879;51.368;6.782;2023-01-01T15:22:44;14.10;96.90
13616;DHT22;6879;51.368;6.782;2023-01-01T15:32:23;13.80;98.20
13616;DHT22;6879;51.368;6.782;2023-01-01T15:53:54;13.70;98.70
13616;DHT22;6879;51.368;6.782;2023-01-01T16:10:48;13.00;99.90
13616;DHT22;6879;51.368;6.782;2023-01-01T16:18:05;12.80;99.90
13616;DHT22;6879;51.368;6.782;2023-01-01T16:20:56;12.70;99.90
13616;DHT22;6879;51.368;6.782;2023-01-01T16:23:25;12.60;99.90
13616;DHT22;6879;51.368;6.782;2023-01-01T16:25:57;12.60;99.90
13616;DHT22;6879;51.368;6.782;2023-01-01T16:28:26;12.60;99.90
13616;DHT22;6879;51.368;6.782;2023-01-01T16:30:56;12.50;99.90
13616;DHT22;6879;51.368;6.782;2023-01-01T17:19:17;11.40;99.90
13616;DHT22;6879;51.368;6.782;2023-01-01T17:21:46;11.40;99.90
13616;DHT22;6879;51.368;6.782;2023-01-01T17:24:17;11.40;99.90
13616;DHT22;6879;51.368;6.782;2023-01-01T17:26:52;11.50;99.90
13616;DHT22;6879;51.368;6.782;2023-01-01T17:29:22;11.40;99.90
13616;DHT22;6879;51.368;6.782;2023-01-01T17:31:52;11.40;99.90
13616;DHT22;6879;51.368;6.782;2023-01-01T17:34:23;11.40;99.90
13616;DHT22;6879;51.368;6.782;2023-01-01T17:36:54;11.40;99.90
13616;DHT22;6879;51.368;6.782;2023-01-01T17:39:22;11.40;99.90
13616;DHT22;6879;51.368;6.782;2023-01-01T17:41:52;11.50;99.90
13616;DHT22;6879;51.368;6.782;2023-01-01T17:44:21;11.50;99.90
13616;DHT22;6879;51.368;6.782;2023-01-01T17:46:50;11.40;99.90
13616;DHT22;6879;51.368;6.782;2023-01-01T17:49:22;11.50;99.90
13616;DHT22;6879;51.368;6.782;2023-01-01T17:51:51;11.50;99.90
13616;DHT22;6879;51.368;6.782;2023-01-01T17:54:20;11.50;99.90
13616;DHT22;6879;51.368;6.782;2023-01-01T17:56:52;11.50;99.90
13616;DHT22;6879;51.368;6.782;2023-01-01T17:59:22;11.50;99.90
13616;DHT22;6879;51.368;6.782;2023-01-01T18:01:51;11.50;99.90
13616;DHT22;6879;51.368;6.782;2023-01-01T18:04:26;11.50;99.90
13616;DHT22;6879;51.368;6.782;2023-01-01T18:06:57;11.50;99.90
13616;DHT22;6879;51.368;6.782;2023-01-01T18:09:45;11.50;99.90
13616;DHT22;6879;51.368;6.782;2023-01-01T18:12:38;11.50;99.90
13616;DHT22;6879;51.368;6.782;2023-01-01T18:15:28;11.50;99.90
13616;DHT22;6879;51.368;6.782;2023-01-01T18:18:31;11.50;99.90
13616;DHT22;6879;51.368;6.782;2023-01-01T18:22:03;11.40;99.90
13616;DHT22;6879;51.368;6.782;2023-01-01T18:25:20;11.40;99.90
13616;DHT22;6879;51.368;6.782;2023-01-01T18:28:16;11.40;99.90
13616;DHT22;6879;51.368;6.782;2023-01-01T18:31:35;11.50;99.90
13616;DHT22;6879;51.368;6.782;2023-01-01T18:34:45;11.40;99.90
13616;DHT22;6879;51.368;6.782;2023-01-01T18:37:52;11.40;99.90
13616;DHT22;6879;51.368;6.782;2023-01-01T18:40:54;11.30;99.90
13616;DHT22;6879;51.368;6.782;2023-01-01T18:44:00;11.40;99.90
13616;DHT22;6879;51.368;6.782;2023-01-01T18:46:40;11.40;99.90
13616;DHT22;6879;51.368;6.782;2023-01-01T18:49:23;11.40;99.90
13616;DHT22;6879;51.368;6.782;2023-01-01T18:52:10;11.40;99.90
13616;DHT22;6879;51.368;6.782;2023-01-01T18:55:08;11.40;99.90
13616;DHT22;6879;51.368;6.782;2023-01-01T18:58:04;11.40;99.90
13616;DHT22;6879;51.368;6.782;2023-01-01T19:01:40;11.40;99.90
13616;DHT22;6879;51.368;6.782;2023-01-01T19:09:47;11.40;99.90
13616;DHT22;6879;51.368;6.782;2023-01-01T20:06:07;11.40;99.90
13616;DHT22;6879;51.368;6.782;2023-01-01T20:08:37;11.40;99.90
13616;DHT22;6879;51.368;6.782;2023-01-01T20:11:06;11.40;99.90
13616;DHT22;6879;51.368;6.782;2023-01-01T20:13:36;11.40;99.90
13616;DHT22;6879;51.368;6.782;2023-01-01T20:16:07;11.40;99.90
13616;DHT22;6879;51.368;6.782;2023-01-01T20:18:37;11.40;99.90
13616;DHT22;6879;51.368;6.782;2023-01-01T20:21:09;11.40;99.90
13616;DHT22;6879;51.368;6.782;2023-01-01T20:23:56;11.40;99.90
13616;DHT22;6879;51.368;6.782;2023-01-01T20:26:25;11.40;99.90
13616;DHT22;6879;51.368;6.782;2023-01-01T20:28:55;11.40;99.90
13616;DHT22;6879;51.368;6.782;2023-01-01T20:31:42;11.40;99.90
13616;DHT22;6879;51.368;6.782;2023-01-01T20:34:14;11.40;99.90
13616;DHT22;6879;51.368;6.782;2023-01-01T20:36:47;11.40;99.90
13616;DHT22;6879;51.368;6.782;2023-01-01T20:39:37;11.50;99.90
13616;DHT22;6879;51.368;6.782;2023-01-01T20:42:06;11.40;99.90
13616;DHT22;6879;51.368;6.782;2023-01-01T20:44:35;11.50;99.90
13616;DHT22;6879;51.368;6.782;2023-01-01T20:47:09;11.50;99.90
13616;DHT22;6879;51.368;6.782;2023-01-01T20:49:39;11.50;99.90
13616;DHT22;6879;51.368;6.782;2023-01-01T20:52:10;11.50;99.90
13616;DHT22;6879;51.368;6.782;2023-01-01T20:54:40;11.50;99.90
13616;DHT22;6879;51.368;6.782;2023-01-01T20:57:11;11.50;99.90
13616;DHT22;6879;51.368;6.782;2023-01-01T20:59:41;11.50;99.90
13616;DHT22;6879;51.368;6.782;2023-01-01T21:02:12;11.50;99.90
13616;DHT22;6879;51.368;6.782;2023-01-01T21:04:41;11.60;99.90
13616;DHT22;6879;51.368;6.782;2023-01-01T21:07:12;11.60;99.90
13616;DHT22;6879;51.368;6.782;2023-01-01T21:09:41;11.60;99.90
13616;DHT22;6879;51.368;6.782;2023-01-01T21:12:11;11.60;99.90
13616;DHT22;6879;51.368;6.782;2023-01-01T21:14:42;11.60;99.90